sensor_id;sensor_type;location;lat;lon;timestamp;P1;durP1;ratioP1;P2;durP2;ratioP2
74170;SDS011;62526;50.948;6.590;2023-03-14T00:01:37;11.23;;;2.58;;
74170;SDS011;62526;50.948;6.590;2023-03-14T00:04:04;8.63;;;2.08;;
74170;SDS011;62526;50.948;6.590;2023-03-14T00:06:31;16.58;;;2.12;;
74170;SDS011;62526;50.948;6.590;2023-03-14T00:08:58;21.48;;;3.08;;
74170;SDS011;62526;50.948;6.590;2023-03-14T00:11:25;8.05;;;1.90;;
74170;SDS011;62526;50.948;6.590;2023-03-14T00:13:52;5.05;;;1.77;;
74170;SDS011;62526;50.948;6.590;2023-03-14T00:16:20;6.03;;;1.67;;
74170;SDS011;62526;50.948;6.590;2023-03-14T00:18:49;9.75;;;2.30;;
74170;SDS011;62526;50.948;6.590;2023-03-14T00:21:16;5.55;;;2.00;;
74170;SDS011;62526;50.948;6.590;2023-03-14T00:23:42;5.27;;;1.80;;
74170;SDS011;62526;50.948;6.590;2023-03-14T00:26:11;3.95;;;1.95;;
74170;SDS011;62526;50.948;6.590;2023-03-14T00:28:37;8.13;;;1.73;;
74170;SDS011;62526;50.948;6.590;2023-03-14T00:31:05;5.40;;;1.92;;
74170;SDS011;62526;50.948;6.590;2023-03-14T00:36:08;8.70;;;2.37;;
74170;SDS011;62526;50.948;6.590;2023-03-14T00:38:35;7.55;;;2.28;;
74170;SDS011;62526;50.948;6.590;2023-03-14T00:41:03;3.17;;;1.15;;
74170;SDS011;62526;50.948;6.590;2023-03-14T00:43:31;3.50;;;1.50;;
74170;SDS011;62526;50.948;6.590;2023-03-14T00:45:58;3.13;;;1.40;;
74170;SDS011;62526;50.948;6.590;2023-03-14T00:48:24;2.57;;;1.53;;
74170;SDS011;62526;50.948;6.590;2023-03-14T00:50:51;2.80;;;1.23;;
74170;SDS011;62526;50.948;6.590;2023-03-14T00:53:18;6.07;;;1.30;;
74170;SDS011;62526;50.948;6.590;2023-03-14T00:55:44;1.23;;;1.03;;
74170;SDS011;62526;50.948;6.590;2023-03-14T00:58:11;4.03;;;1.13;;
74170;SDS011;62526;50.948;6.590;2023-03-14T01:00:37;3.73;;;1.30;;
74170;SDS011;62526;50.948;6.590;2023-03-14T01:03:04;6.57;;;1.60;;
74170;SDS011;62526;50.948;6.590;2023-03-14T01:05:30;3.17;;;1.27;;
74170;SDS011;62526;50.948;6.590;2023-03-14T01:07:57;2.93;;;1.30;;
74170;SDS011;62526;50.948;6.590;2023-03-14T01:10:24;2.93;;;1.33;;
74170;SDS011;62526;50.948;6.590;2023-03-14T01:12:51;5.20;;;1.37;;
74170;SDS011;62526;50.948;6.590;2023-03-14T01:15:19;2.33;;;1.10;;
74170;SDS011;62526;50.948;6.590;2023-03-14T01:17:45;2.60;;;1.20;;
74170;SDS011;62526;50.948;6.590;2023-03-14T01:20:13;4.90;;;2.00;;
74170;SDS011;62526;50.948;6.590;2023-03-14T01:22:40;9.50;;;2.27;;
74170;SDS011;62526;50.948;6.590;2023-03-14T01:25:07;6.53;;;2.50;;
74170;SDS011;62526;50.948;6.590;2023-03-14T01:27:34;5.20;;;1.60;;
74170;SDS011;62526;50.948;6.590;2023-03-14T01:30:00;7.70;;;1.80;;
74170;SDS011;62526;50.948;6.590;2023-03-14T01:32:27;5.50;;;1.90;;
74170;SDS011;62526;50.948;6.590;2023-03-14T01:34:53;7.47;;;2.07;;
74170;SDS011;62526;50.948;6.590;2023-03-14T01:37:20;8.47;;;1.63;;
74170;SDS011;62526;50.948;6.590;2023-03-14T01:39:47;11.27;;;1.70;;
74170;SDS011;62526;50.948;6.590;2023-03-14T01:42:14;4.57;;;1.80;;
74170;SDS011;62526;50.948;6.590;2023-03-14T01:47:14;6.47;;;1.80;;
74170;SDS011;62526;50.948;6.590;2023-03-14T01:49:41;6.27;;;1.50;;
74170;SDS011;62526;50.948;6.590;2023-03-14T01:52:10;5.23;;;1.90;;
74170;SDS011;62526;50.948;6.590;2023-03-14T01:54:37;5.13;;;1.67;;
74170;SDS011;62526;50.948;6.590;2023-03-14T01:57:06;4.77;;;1.57;;
74170;SDS011;62526;50.948;6.590;2023-03-14T01:59:36;7.87;;;1.70;;
74170;SDS011;62526;50.948;6.590;2023-03-14T02:02:04;5.40;;;1.53;;
74170;SDS011;62526;50.948;6.590;2023-03-14T02:04:30;5.27;;;1.60;;
74170;SDS011;62526;50.948;6.590;2023-03-14T02:07:00;8.83;;;1.90;;
74170;SDS011;62526;50.948;6.590;2023-03-14T02:09:29;9.10;;;2.63;;
74170;SDS011;62526;50.948;6.590;2023-03-14T02:11:56;6.00;;;1.83;;
74170;SDS011;62526;50.948;6.590;2023-03-14T02:14:27;8.87;;;1.50;;
74170;SDS011;62526;50.948;6.590;2023-03-14T02:16:55;6.47;;;1.87;;
74170;SDS011;62526;50.948;6.590;2023-03-14T02:19:26;5.30;;;1.63;;
74170;SDS011;62526;50.948;6.590;2023-03-14T02:21:55;7.37;;;2.47;;
74170;SDS011;62526;50.948;6.590;2023-03-14T02:24:27;8.87;;;1.83;;
74170;SDS011;62526;50.948;6.590;2023-03-14T02:29:27;8.77;;;1.90;;
74170;SDS011;62526;50.948;6.590;2023-03-14T02:31:54;7.67;;;1.70;;
74170;SDS011;62526;50.948;6.590;2023-03-14T02:34:21;5.23;;;2.07;;
74170;SDS011;62526;50.948;6.590;2023-03-14T02:36:47;8.40;;;1.77;;
74170;SDS011;62526;50.948;6.590;2023-03-14T02:39:15;5.93;;;2.00;;
74170;SDS011;62526;50.948;6.590;2023-03-14T02:41:40;6.33;;;2.43;;
74170;SDS011;62526;50.948;6.590;2023-03-14T02:44:07;4.17;;;1.70;;
74170;SDS011;62526;50.948;6.590;2023-03-14T02:46:34;6.60;;;1.80;;
74170;SDS011;62526;50.948;6.590;2023-03-14T02:49:02;4.27;;;1.60;;
74170;SDS011;62526;50.948;6.590;2023-03-14T02:51:28;5.57;;;1.43;;
74170;SDS011;62526;50.948;6.590;2023-03-14T02:53:55;4.33;;;1.43;;
74170;SDS011;62526;50.948;6.590;2023-03-14T02:56:22;4.90;;;1.93;;
74170;SDS011;62526;50.948;6.590;2023-03-14T02:58:48;3.63;;;1.80;;
74170;SDS011;62526;50.948;6.590;2023-03-14T03:01:15;6.27;;;1.60;;
74170;SDS011;62526;50.948;6.590;2023-03-14T03:03:41;9.87;;;2.43;;
74170;SDS011;62526;50.948;6.590;2023-03-14T03:06:08;12.00;;;1.93;;
74170;SDS011;62526;50.948;6.590;2023-03-14T03:08:35;7.87;;;2.20;;
74170;SDS011;62526;50.948;6.590;2023-03-14T03:11:01;9.03;;;2.53;;
74170;SDS011;62526;50.948;6.590;2023-03-14T03:13:28;8.77;;;1.77;;
74170;SDS011;62526;50.948;6.590;2023-03-14T03:15:54;12.07;;;2.07;;
74170;SDS011;62526;50.948;6.590;2023-03-14T03:18:21;6.73;;;2.30;;
74170;SDS011;62526;50.948;6.590;2023-03-14T03:20:47;5.43;;;1.77;;
74170;SDS011;62526;50.948;6.590;2023-03-14T03:23:14;5.93;;;2.07;;
74170;SDS011;62526;50.948;6.590;2023-03-14T03:25:41;7.77;;;2.10;;
74170;SDS011;62526;50.948;6.590;2023-03-14T03:28:08;7.67;;;1.90;;
74170;SDS011;62526;50.948;6.590;2023-03-14T03:30:37;9.10;;;2.50;;
74170;SDS011;62526;50.948;6.590;2023-03-14T03:33:03;5.13;;;1.87;;
74170;SDS011;62526;50.948;6.590;2023-03-14T03:35:30;7.27;;;2.83;;
74170;SDS011;62526;50.948;6.590;2023-03-14T03:37:56;8.40;;;1.97;;
74170;SDS011;62526;50.948;6.590;2023-03-14T03:40:23;9.43;;;2.60;;
74170;SDS011;62526;50.948;6.590;2023-03-14T03:42:50;9.63;;;2.30;;
74170;SDS011;62526;50.948;6.590;2023-03-14T03:45:16;9.87;;;2.17;;
74170;SDS011;62526;50.948;6.590;2023-03-14T03:47:43;8.10;;;2.77;;
74170;SDS011;62526;50.948;6.590;2023-03-14T03:50:10;7.80;;;2.67;;
74170;SDS011;62526;50.948;6.590;2023-03-14T03:52:37;7.53;;;1.80;;
74170;SDS011;62526;50.948;6.590;2023-03-14T03:55:04;9.10;;;2.30;;
74170;SDS011;62526;50.948;6.590;2023-03-14T03:57:30;7.67;;;2.03;;
74170;SDS011;62526;50.948;6.590;2023-03-14T03:59:57;2.40;;;1.63;;
74170;SDS011;62526;50.948;6.590;2023-03-14T04:02:24;5.43;;;1.67;;
74170;SDS011;62526;50.948;6.590;2023-03-14T04:04:51;7.23;;;1.90;;
74170;SDS011;62526;50.948;6.590;2023-03-14T04:07:17;7.47;;;1.53;;
74170;SDS011;62526;50.948;6.590;2023-03-14T04:09:45;4.70;;;1.73;;
74170;SDS011;62526;50.948;6.590;2023-03-14T04:12:12;1.60;;;1.20;;
74170;SDS011;62526;50.948;6.590;2023-03-14T04:14:38;8.33;;;1.60;;
74170;SDS011;62526;50.948;6.590;2023-03-14T04:17:05;2.67;;;1.43;;
74170;SDS011;62526;50.948;6.590;2023-03-14T04:19:31;3.27;;;1.40;;
74170;SDS011;62526;50.948;6.590;2023-03-14T04:21:58;4.50;;;1.80;;
74170;SDS011;62526;50.948;6.590;2023-03-14T04:24:25;6.17;;;1.43;;
74170;SDS011;62526;50.948;6.590;2023-03-14T04:26:51;5.57;;;1.50;;
74170;SDS011;62526;50.948;6.590;2023-03-14T04:29:18;2.47;;;1.60;;
74170;SDS011;62526;50.948;6.590;2023-03-14T04:31:45;4.60;;;1.50;;
74170;SDS011;62526;50.948;6.590;2023-03-14T04:34:12;18.07;;;1.93;;
74170;SDS011;62526;50.948;6.590;2023-03-14T04:36:40;3.67;;;1.40;;
74170;SDS011;62526;50.948;6.590;2023-03-14T04:39:07;2.97;;;1.30;;
74170;SDS011;62526;50.948;6.590;2023-03-14T04:41:34;1.73;;;1.50;;
74170;SDS011;62526;50.948;6.590;2023-03-14T04:44:01;3.60;;;1.50;;
74170;SDS011;62526;50.948;6.590;2023-03-14T04:46:27;7.10;;;1.10;;
74170;SDS011;62526;50.948;6.590;2023-03-14T04:48:55;1.77;;;1.37;;
74170;SDS011;62526;50.948;6.590;2023-03-14T04:51:22;3.20;;;1.13;;
74170;SDS011;62526;50.948;6.590;2023-03-14T04:53:49;1.67;;;1.47;;
74170;SDS011;62526;50.948;6.590;2023-03-14T04:56:15;3.50;;;1.10;;
74170;SDS011;62526;50.948;6.590;2023-03-14T04:58:42;1.70;;;1.27;;
74170;SDS011;62526;50.948;6.590;2023-03-14T05:01:09;3.10;;;1.37;;
74170;SDS011;62526;50.948;6.590;2023-03-14T05:03:35;0.83;;;0.83;;
74170;SDS011;62526;50.948;6.590;2023-03-14T05:06:02;1.07;;;0.93;;
74170;SDS011;62526;50.948;6.590;2023-03-14T05:08:30;1.40;;;0.80;;
74170;SDS011;62526;50.948;6.590;2023-03-14T05:10:58;1.13;;;1.03;;
74170;SDS011;62526;50.948;6.590;2023-03-14T05:13:24;2.67;;;1.30;;
74170;SDS011;62526;50.948;6.590;2023-03-14T05:15:51;1.30;;;1.10;;
74170;SDS011;62526;50.948;6.590;2023-03-14T05:18:18;2.37;;;1.17;;
74170;SDS011;62526;50.948;6.590;2023-03-14T05:20:45;1.93;;;1.50;;
74170;SDS011;62526;50.948;6.590;2023-03-14T05:23:12;0.93;;;0.90;;
74170;SDS011;62526;50.948;6.590;2023-03-14T05:25:42;2.67;;;1.00;;
74170;SDS011;62526;50.948;6.590;2023-03-14T05:28:07;3.13;;;1.37;;
74170;SDS011;62526;50.948;6.590;2023-03-14T05:30:34;3.23;;;1.00;;
74170;SDS011;62526;50.948;6.590;2023-03-14T05:33:01;2.27;;;0.70;;
74170;SDS011;62526;50.948;6.590;2023-03-14T05:35:28;0.60;;;0.60;;
74170;SDS011;62526;50.948;6.590;2023-03-14T05:37:54;1.47;;;1.03;;
74170;SDS011;62526;50.948;6.590;2023-03-14T05:40:22;1.90;;;0.87;;
74170;SDS011;62526;50.948;6.590;2023-03-14T05:42:48;1.60;;;0.90;;
74170;SDS011;62526;50.948;6.590;2023-03-14T05:45:16;1.67;;;0.80;;
74170;SDS011;62526;50.948;6.590;2023-03-14T05:47:42;0.77;;;0.60;;
74170;SDS011;62526;50.948;6.590;2023-03-14T05:50:09;0.87;;;0.83;;
74170;SDS011;62526;50.948;6.590;2023-03-14T05:52:36;1.87;;;0.90;;
74170;SDS011;62526;50.948;6.590;2023-03-14T05:55:02;1.40;;;0.70;;
74170;SDS011;62526;50.948;6.590;2023-03-14T05:57:29;0.70;;;0.67;;
74170;SDS011;62526;50.948;6.590;2023-03-14T05:59:57;1.63;;;0.87;;
74170;SDS011;62526;50.948;6.590;2023-03-14T06:02:23;0.70;;;0.70;;
74170;SDS011;62526;50.948;6.590;2023-03-14T06:04:50;0.60;;;0.60;;
74170;SDS011;62526;50.948;6.590;2023-03-14T06:07:18;1.37;;;0.70;;
74170;SDS011;62526;50.948;6.590;2023-03-14T06:09:44;0.60;;;0.60;;
74170;SDS011;62526;50.948;6.590;2023-03-14T06:12:12;0.73;;;0.73;;
74170;SDS011;62526;50.948;6.590;2023-03-14T06:14:38;3.50;;;1.00;;
74170;SDS011;62526;50.948;6.590;2023-03-14T06:17:06;1.17;;;0.70;;
74170;SDS011;62526;50.948;6.590;2023-03-14T06:19:32;0.70;;;0.70;;
74170;SDS011;62526;50.948;6.590;2023-03-14T06:21:59;1.37;;;0.80;;
74170;SDS011;62526;50.948;6.590;2023-03-14T06:24:26;3.00;;;0.90;;
74170;SDS011;62526;50.948;6.590;2023-03-14T06:26:54;2.00;;;0.70;;
74170;SDS011;62526;50.948;6.590;2023-03-14T06:29:20;2.23;;;1.20;;
74170;SDS011;62526;50.948;6.590;2023-03-14T06:31:47;0.50;;;0.50;;
74170;SDS011;62526;50.948;6.590;2023-03-14T06:34:19;0.70;;;0.70;;
74170;SDS011;62526;50.948;6.590;2023-03-14T06:36:47;1.27;;;0.63;;
74170;SDS011;62526;50.948;6.590;2023-03-14T06:39:13;1.07;;;0.57;;
74170;SDS011;62526;50.948;6.590;2023-03-14T06:41:40;0.63;;;0.60;;
74170;SDS011;62526;50.948;6.590;2023-03-14T06:44:07;1.43;;;0.67;;
74170;SDS011;62526;50.948;6.590;2023-03-14T06:46:34;1.20;;;0.70;;
74170;SDS011;62526;50.948;6.590;2023-03-14T06:49:01;0.73;;;0.70;;
74170;SDS011;62526;50.948;6.590;2023-03-14T06:51:28;1.10;;;0.73;;
74170;SDS011;62526;50.948;6.590;2023-03-14T06:53:56;1.03;;;0.50;;
74170;SDS011;62526;50.948;6.590;2023-03-14T06:56:23;0.60;;;0.60;;
74170;SDS011;62526;50.948;6.590;2023-03-14T06:58:50;1.77;;;0.80;;
74170;SDS011;62526;50.948;6.590;2023-03-14T07:01:22;2.03;;;0.73;;
74170;SDS011;62526;50.948;6.590;2023-03-14T07:03:49;0.50;;;0.50;;
74170;SDS011;62526;50.948;6.590;2023-03-14T07:06:16;2.37;;;0.70;;
74170;SDS011;62526;50.948;6.590;2023-03-14T07:08:43;0.70;;;0.70;;
74170;SDS011;62526;50.948;6.590;2023-03-14T07:11:09;3.07;;;0.77;;
74170;SDS011;62526;50.948;6.590;2023-03-14T07:13:37;1.27;;;0.70;;
74170;SDS011;62526;50.948;6.590;2023-03-14T07:16:04;0.77;;;0.77;;
74170;SDS011;62526;50.948;6.590;2023-03-14T07:18:32;1.17;;;0.80;;
74170;SDS011;62526;50.948;6.590;2023-03-14T07:20:59;0.70;;;0.70;;
74170;SDS011;62526;50.948;6.590;2023-03-14T07:23:26;0.70;;;0.70;;
74170;SDS011;62526;50.948;6.590;2023-03-14T07:25:53;0.70;;;0.70;;
74170;SDS011;62526;50.948;6.590;2023-03-14T07:28:20;0.70;;;0.70;;
74170;SDS011;62526;50.948;6.590;2023-03-14T07:30:46;1.33;;;0.70;;
74170;SDS011;62526;50.948;6.590;2023-03-14T07:35:52;1.13;;;1.03;;
74170;SDS011;62526;50.948;6.590;2023-03-14T07:38:19;0.70;;;0.70;;
74170;SDS011;62526;50.948;6.590;2023-03-14T07:40:46;1.10;;;1.00;;
74170;SDS011;62526;50.948;6.590;2023-03-14T07:43:12;1.10;;;1.00;;
74170;SDS011;62526;50.948;6.590;2023-03-14T07:45:40;2.20;;;1.00;;
74170;SDS011;62526;50.948;6.590;2023-03-14T07:48:07;0.90;;;0.90;;
74170;SDS011;62526;50.948;6.590;2023-03-14T07:50:33;1.70;;;0.90;;
74170;SDS011;62526;50.948;6.590;2023-03-14T07:53:00;1.05;;;1.05;;
74170;SDS011;62526;50.948;6.590;2023-03-14T07:55:29;2.00;;;1.10;;
74170;SDS011;62526;50.948;6.590;2023-03-14T07:57:56;1.20;;;1.10;;
74170;SDS011;62526;50.948;6.590;2023-03-14T08:00:22;1.27;;;1.17;;
74170;SDS011;62526;50.948;6.590;2023-03-14T08:02:49;1.50;;;1.20;;
74170;SDS011;62526;50.948;6.590;2023-03-14T08:05:16;3.00;;;1.80;;
74170;SDS011;62526;50.948;6.590;2023-03-14T08:07:42;9.00;;;1.30;;
74170;SDS011;62526;50.948;6.590;2023-03-14T08:10:09;1.87;;;1.23;;
74170;SDS011;62526;50.948;6.590;2023-03-14T08:12:36;0.83;;;0.83;;
74170;SDS011;62526;50.948;6.590;2023-03-14T08:15:03;1.10;;;1.00;;
74170;SDS011;62526;50.948;6.590;2023-03-14T08:17:30;1.00;;;1.00;;
74170;SDS011;62526;50.948;6.590;2023-03-14T08:19:58;1.67;;;1.10;;
74170;SDS011;62526;50.948;6.590;2023-03-14T08:22:25;4.10;;;1.13;;
74170;SDS011;62526;50.948;6.590;2023-03-14T08:24:52;1.70;;;1.10;;
74170;SDS011;62526;50.948;6.590;2023-03-14T08:27:18;1.03;;;0.93;;
74170;SDS011;62526;50.948;6.590;2023-03-14T08:29:46;1.63;;;1.10;;
74170;SDS011;62526;50.948;6.590;2023-03-14T08:32:14;1.83;;;0.90;;
74170;SDS011;62526;50.948;6.590;2023-03-14T08:34:40;1.00;;;1.00;;
74170;SDS011;62526;50.948;6.590;2023-03-14T08:37:07;1.43;;;1.00;;
74170;SDS011;62526;50.948;6.590;2023-03-14T08:39:35;2.67;;;1.13;;
74170;SDS011;62526;50.948;6.590;2023-03-14T08:42:03;1.10;;;0.90;;
74170;SDS011;62526;50.948;6.590;2023-03-14T08:44:29;3.03;;;1.10;;
74170;SDS011;62526;50.948;6.590;2023-03-14T08:46:56;0.80;;;0.80;;
74170;SDS011;62526;50.948;6.590;2023-03-14T08:49:23;1.10;;;1.00;;
74170;SDS011;62526;50.948;6.590;2023-03-14T08:51:50;1.00;;;0.77;;
74170;SDS011;62526;50.948;6.590;2023-03-14T08:54:16;1.50;;;1.10;;
74170;SDS011;62526;50.948;6.590;2023-03-14T08:56:44;4.43;;;1.03;;
74170;SDS011;62526;50.948;6.590;2023-03-14T08:59:10;1.20;;;0.83;;
74170;SDS011;62526;50.948;6.590;2023-03-14T09:01:38;0.80;;;0.80;;
74170;SDS011;62526;50.948;6.590;2023-03-14T09:04:05;0.83;;;0.67;;
74170;SDS011;62526;50.948;6.590;2023-03-14T09:06:32;1.00;;;0.80;;
74170;SDS011;62526;50.948;6.590;2023-03-14T09:08:59;0.80;;;0.80;;
74170;SDS011;62526;50.948;6.590;2023-03-14T09:11:26;0.80;;;0.60;;
74170;SDS011;62526;50.948;6.590;2023-03-14T09:13:53;0.80;;;0.80;;
74170;SDS011;62526;50.948;6.590;2023-03-14T09:16:20;1.77;;;1.00;;
74170;SDS011;62526;50.948;6.590;2023-03-14T09:18:47;2.50;;;1.20;;
74170;SDS011;62526;50.948;6.590;2023-03-14T09:21:14;0.90;;;0.90;;
74170;SDS011;62526;50.948;6.590;2023-03-14T09:23:41;3.30;;;1.30;;
74170;SDS011;62526;50.948;6.590;2023-03-14T09:26:08;1.00;;;1.00;;
74170;SDS011;62526;50.948;6.590;2023-03-14T09:28:35;0.70;;;0.70;;
74170;SDS011;62526;50.948;6.590;2023-03-14T09:31:05;1.63;;;0.90;;
74170;SDS011;62526;50.948;6.590;2023-03-14T09:33:32;0.63;;;0.63;;
74170;SDS011;62526;50.948;6.590;2023-03-14T09:38:36;2.13;;;0.90;;
74170;SDS011;62526;50.948;6.590;2023-03-14T09:41:03;1.30;;;0.93;;
74170;SDS011;62526;50.948;6.590;2023-03-14T09:43:30;1.13;;;1.10;;
74170;SDS011;62526;50.948;6.590;2023-03-14T09:45:57;4.10;;;1.60;;
74170;SDS011;62526;50.948;6.590;2023-03-14T09:48:26;2.83;;;1.40;;
74170;SDS011;62526;50.948;6.590;2023-03-14T09:50:53;2.00;;;1.30;;
74170;SDS011;62526;50.948;6.590;2023-03-14T09:53:21;1.40;;;1.30;;
74170;SDS011;62526;50.948;6.590;2023-03-14T09:55:48;1.37;;;1.27;;
74170;SDS011;62526;50.948;6.590;2023-03-14T09:58:22;0.90;;;0.90;;
74170;SDS011;62526;50.948;6.590;2023-03-14T10:00:50;1.30;;;1.20;;
74170;SDS011;62526;50.948;6.590;2023-03-14T10:03:36;3.70;;;1.10;;
74170;SDS011;62526;50.948;6.590;2023-03-14T10:06:08;3.40;;;1.20;;
74170;SDS011;62526;50.948;6.590;2023-03-14T10:08:32;1.30;;;1.20;;
74170;SDS011;62526;50.948;6.590;2023-03-14T10:11:01;1.47;;;1.20;;
74170;SDS011;62526;50.948;6.590;2023-03-14T10:13:28;1.37;;;1.27;;
74170;SDS011;62526;50.948;6.590;2023-03-14T10:15:55;2.73;;;1.73;;
74170;SDS011;62526;50.948;6.590;2023-03-14T10:18:22;1.47;;;1.37;;
74170;SDS011;62526;50.948;6.590;2023-03-14T10:20:50;3.43;;;1.77;;
74170;SDS011;62526;50.948;6.590;2023-03-14T10:23:22;1.57;;;1.47;;
74170;SDS011;62526;50.948;6.590;2023-03-14T10:25:57;1.57;;;1.43;;
74170;SDS011;62526;50.948;6.590;2023-03-14T10:28:25;2.43;;;1.70;;
74170;SDS011;62526;50.948;6.590;2023-03-14T10:30:54;1.67;;;1.50;;
74170;SDS011;62526;50.948;6.590;2023-03-14T10:33:22;2.93;;;1.40;;
74170;SDS011;62526;50.948;6.590;2023-03-14T10:35:54;1.53;;;1.30;;
74170;SDS011;62526;50.948;6.590;2023-03-14T10:38:22;2.10;;;1.30;;
74170;SDS011;62526;50.948;6.590;2023-03-14T10:40:48;1.63;;;1.53;;
74170;SDS011;62526;50.948;6.590;2023-03-14T10:43:16;3.97;;;1.70;;
74170;SDS011;62526;50.948;6.590;2023-03-14T10:45:43;2.33;;;1.07;;
74170;SDS011;62526;50.948;6.590;2023-03-14T10:48:18;1.33;;;1.23;;
74170;SDS011;62526;50.948;6.590;2023-03-14T10:53:19;1.77;;;1.40;;
74170;SDS011;62526;50.948;6.590;2023-03-14T10:55:47;1.20;;;1.10;;
74170;SDS011;62526;50.948;6.590;2023-03-14T10:58:17;2.20;;;1.30;;
74170;SDS011;62526;50.948;6.590;2023-03-14T11:00:51;2.13;;;1.30;;
74170;SDS011;62526;50.948;6.590;2023-03-14T11:03:16;2.70;;;1.67;;
74170;SDS011;62526;50.948;6.590;2023-03-14T11:05:47;2.23;;;2.03;;
74170;SDS011;62526;50.948;6.590;2023-03-14T11:08:17;3.00;;;1.50;;
74170;SDS011;62526;50.948;6.590;2023-03-14T11:10:45;1.40;;;1.30;;
74170;SDS011;62526;50.948;6.590;2023-03-14T11:13:24;1.87;;;1.50;;
74170;SDS011;62526;50.948;6.590;2023-03-14T11:16:06;4.00;;;1.90;;
74170;SDS011;62526;50.948;6.590;2023-03-14T11:18:47;2.30;;;1.60;;
74170;SDS011;62526;50.948;6.590;2023-03-14T11:21:13;1.40;;;1.30;;
74170;SDS011;62526;50.948;6.590;2023-03-14T11:23:58;1.90;;;1.53;;
74170;SDS011;62526;50.948;6.590;2023-03-14T11:26:29;1.90;;;1.80;;
74170;SDS011;62526;50.948;6.590;2023-03-14T11:29:02;4.20;;;1.93;;
74170;SDS011;62526;50.948;6.590;2023-03-14T11:31:26;2.70;;;1.30;;
74170;SDS011;62526;50.948;6.590;2023-03-14T11:33:56;0.80;;;0.80;;
74170;SDS011;62526;50.948;6.590;2023-03-14T11:36:38;0.70;;;0.60;;
74170;SDS011;62526;50.948;6.590;2023-03-14T11:39:07;1.07;;;0.80;;
74170;SDS011;62526;50.948;6.590;2023-03-14T11:41:33;0.80;;;0.80;;
74170;SDS011;62526;50.948;6.590;2023-03-14T11:43:59;1.57;;;0.60;;
74170;SDS011;62526;50.948;6.590;2023-03-14T11:46:28;0.60;;;0.60;;
74170;SDS011;62526;50.948;6.590;2023-03-14T11:51:41;0.80;;;0.80;;
74170;SDS011;62526;50.948;6.590;2023-03-14T11:56:52;2.00;;;1.20;;
74170;SDS011;62526;50.948;6.590;2023-03-14T11:59:21;4.27;;;1.50;;
74170;SDS011;62526;50.948;6.590;2023-03-14T12:01:51;1.83;;;1.20;;
74170;SDS011;62526;50.948;6.590;2023-03-14T12:04:28;2.00;;;1.00;;
74170;SDS011;62526;50.948;6.590;2023-03-14T12:06:50;3.00;;;1.30;;
74170;SDS011;62526;50.948;6.590;2023-03-14T12:09:17;1.93;;;1.17;;
74170;SDS011;62526;50.948;6.590;2023-03-14T12:11:47;3.60;;;1.20;;
74170;SDS011;62526;50.948;6.590;2023-03-14T12:14:31;1.70;;;1.10;;
74170;SDS011;62526;50.948;6.590;2023-03-14T12:16:59;2.57;;;1.30;;
74170;SDS011;62526;50.948;6.590;2023-03-14T12:19:40;0.93;;;0.93;;
74170;SDS011;62526;50.948;6.590;2023-03-14T12:22:25;1.17;;;1.10;;
74170;SDS011;62526;50.948;6.590;2023-03-14T12:24:59;0.97;;;0.97;;
74170;SDS011;62526;50.948;6.590;2023-03-14T12:27:41;0.93;;;0.90;;
74170;SDS011;62526;50.948;6.590;2023-03-14T12:38:29;5.30;;;1.70;;
74170;SDS011;62526;50.948;6.590;2023-03-14T12:40:59;2.27;;;1.40;;
74170;SDS011;62526;50.948;6.590;2023-03-14T12:43:31;2.17;;;1.20;;
74170;SDS011;62526;50.948;6.590;2023-03-14T12:48:35;2.17;;;1.30;;
74170;SDS011;62526;50.948;6.590;2023-03-14T12:51:02;1.67;;;1.30;;
74170;SDS011;62526;50.948;6.590;2023-03-14T12:53:36;5.10;;;1.40;;
74170;SDS011;62526;50.948;6.590;2023-03-14T12:56:09;1.67;;;1.03;;
74170;SDS011;62526;50.948;6.590;2023-03-14T12:58:38;4.50;;;1.60;;
74170;SDS011;62526;50.948;6.590;2023-03-14T13:01:04;5.10;;;2.10;;
74170;SDS011;62526;50.948;6.590;2023-03-14T13:03:41;7.37;;;1.47;;
74170;SDS011;62526;50.948;6.590;2023-03-14T13:06:56;3.20;;;1.53;;
74170;SDS011;62526;50.948;6.590;2023-03-14T13:11:49;10.83;;;2.70;;
74170;SDS011;62526;50.948;6.590;2023-03-14T13:14:16;0.90;;;0.90;;
74170;SDS011;62526;50.948;6.590;2023-03-14T13:16:43;4.47;;;1.33;;
74170;SDS011;62526;50.948;6.590;2023-03-14T13:19:11;4.57;;;1.23;;
74170;SDS011;62526;50.948;6.590;2023-03-14T13:21:38;18.47;;;2.30;;
74170;SDS011;62526;50.948;6.590;2023-03-14T13:24:06;4.00;;;1.37;;
74170;SDS011;62526;50.948;6.590;2023-03-14T13:26:36;11.50;;;1.80;;
74170;SDS011;62526;50.948;6.590;2023-03-14T13:29:34;9.10;;;2.00;;
74170;SDS011;62526;50.948;6.590;2023-03-14T13:31:49;8.27;;;2.27;;
74170;SDS011;62526;50.948;6.590;2023-03-14T13:34:16;7.57;;;2.23;;
74170;SDS011;62526;50.948;6.590;2023-03-14T13:36:42;7.33;;;1.93;;
74170;SDS011;62526;50.948;6.590;2023-03-14T13:39:13;6.00;;;1.63;;
74170;SDS011;62526;50.948;6.590;2023-03-14T13:41:39;8.77;;;1.60;;
74170;SDS011;62526;50.948;6.590;2023-03-14T13:44:06;7.27;;;1.63;;
74170;SDS011;62526;50.948;6.590;2023-03-14T13:46:34;9.53;;;1.97;;
74170;SDS011;62526;50.948;6.590;2023-03-14T13:49:04;6.50;;;2.13;;
74170;SDS011;62526;50.948;6.590;2023-03-14T13:51:29;7.37;;;2.20;;
74170;SDS011;62526;50.948;6.590;2023-03-14T13:53:57;9.77;;;2.30;;
74170;SDS011;62526;50.948;6.590;2023-03-14T13:56:25;4.93;;;1.70;;
74170;SDS011;62526;50.948;6.590;2023-03-14T13:58:51;8.10;;;1.90;;
74170;SDS011;62526;50.948;6.590;2023-03-14T14:01:18;7.33;;;2.30;;
74170;SDS011;62526;50.948;6.590;2023-03-14T14:03:47;8.67;;;2.50;;
74170;SDS011;62526;50.948;6.590;2023-03-14T14:06:32;9.33;;;2.77;;
74170;SDS011;62526;50.948;6.590;2023-03-14T14:08:59;8.83;;;2.07;;
74170;SDS011;62526;50.948;6.590;2023-03-14T14:11:31;9.67;;;2.23;;
74170;SDS011;62526;50.948;6.590;2023-03-14T14:13:57;9.97;;;2.70;;
74170;SDS011;62526;50.948;6.590;2023-03-14T14:16:24;14.70;;;2.37;;
74170;SDS011;62526;50.948;6.590;2023-03-14T14:18:52;13.50;;;2.97;;
74170;SDS011;62526;50.948;6.590;2023-03-14T14:21:18;11.60;;;2.20;;
74170;SDS011;62526;50.948;6.590;2023-03-14T14:23:45;12.27;;;2.57;;
74170;SDS011;62526;50.948;6.590;2023-03-14T14:26:14;14.77;;;2.17;;
74170;SDS011;62526;50.948;6.590;2023-03-14T14:28:38;5.77;;;1.40;;
74170;SDS011;62526;50.948;6.590;2023-03-14T14:31:21;5.23;;;1.97;;
74170;SDS011;62526;50.948;6.590;2023-03-14T14:33:56;6.43;;;1.30;;
74170;SDS011;62526;50.948;6.590;2023-03-14T14:36:25;5.33;;;2.07;;
74170;SDS011;62526;50.948;6.590;2023-03-14T14:38:58;8.97;;;2.13;;
74170;SDS011;62526;50.948;6.590;2023-03-14T14:41:27;7.63;;;2.07;;
74170;SDS011;62526;50.948;6.590;2023-03-14T14:43:53;5.83;;;2.03;;
74170;SDS011;62526;50.948;6.590;2023-03-14T14:46:19;8.87;;;2.50;;
74170;SDS011;62526;50.948;6.590;2023-03-14T14:48:46;7.30;;;2.33;;
74170;SDS011;62526;50.948;6.590;2023-03-14T14:51:21;11.70;;;2.13;;
74170;SDS011;62526;50.948;6.590;2023-03-14T14:53:40;7.23;;;2.17;;
74170;SDS011;62526;50.948;6.590;2023-03-14T14:56:08;8.93;;;2.77;;
74170;SDS011;62526;50.948;6.590;2023-03-14T14:58:35;12.13;;;2.03;;
74170;SDS011;62526;50.948;6.590;2023-03-14T15:01:07;6.60;;;2.40;;
74170;SDS011;62526;50.948;6.590;2023-03-14T15:03:34;14.00;;;2.33;;
74170;SDS011;62526;50.948;6.590;2023-03-14T15:06:01;8.60;;;2.17;;
74170;SDS011;62526;50.948;6.590;2023-03-14T15:08:27;16.60;;;2.77;;
74170;SDS011;62526;50.948;6.590;2023-03-14T15:10:55;13.97;;;3.03;;
74170;SDS011;62526;50.948;6.590;2023-03-14T15:13:23;15.07;;;3.93;;
74170;SDS011;62526;50.948;6.590;2023-03-14T15:15:50;12.30;;;2.50;;
74170;SDS011;62526;50.948;6.590;2023-03-14T15:18:24;18.50;;;2.40;;
74170;SDS011;62526;50.948;6.590;2023-03-14T15:20:50;12.67;;;2.27;;
74170;SDS011;62526;50.948;6.590;2023-03-14T15:23:18;19.67;;;2.63;;
74170;SDS011;62526;50.948;6.590;2023-03-14T15:25:43;9.33;;;2.30;;
74170;SDS011;62526;50.948;6.590;2023-03-14T15:28:15;6.60;;;2.30;;